createdAt,value
2023-02-22T00:04:22.286Z,6.60
2023-02-22T00:09:24.245Z,6.50
2023-02-22T00:14:27.456Z,6.50
2023-02-22T00:19:30.766Z,6.50
2023-02-22T00:24:33.042Z,6.40
2023-02-22T00:29:35.347Z,6.40
2023-02-22T00:34:37.350Z,6.40
2023-02-22T00:39:39.315Z,6.30
2023-02-22T00:44:41.310Z,6.30
2023-02-22T00:49:43.320Z,6.30
2023-02-22T00:54:45.331Z,6.20
2023-02-22T00:59:47.428Z,6.10
2023-02-22T01:04:49.477Z,6.00
2023-02-22T01:09:51.572Z,5.90
2023-02-22T01:14:56.956Z,5.90
2023-02-22T01:19:58.964Z,5.90
2023-02-22T01:25:01.182Z,5.90
2023-02-22T01:30:08.447Z,6.00
2023-02-22T01:35:13.623Z,5.90
2023-02-22T01:40:18.063Z,5.90
2023-02-22T01:45:30.691Z,5.90
2023-02-22T01:50:35.451Z,5.80
2023-02-22T01:55:39.018Z,5.80
2023-02-22T02:00:41.267Z,5.90
2023-02-22T02:05:43.774Z,5.80
2023-02-22T02:10:46.428Z,5.80
2023-02-22T02:15:49.788Z,5.60
2023-02-22T02:20:51.759Z,5.50
2023-02-22T02:26:00.628Z,5.50
2023-02-22T02:31:08.228Z,5.40
2023-02-22T02:36:16.156Z,5.40
2023-02-22T02:41:21.734Z,5.40
2023-02-22T02:46:31.650Z,5.30
2023-02-22T02:51:38.427Z,5.30
2023-02-22T02:56:41.077Z,5.30
2023-02-22T03:02:15.430Z,5.30
2023-02-22T03:07:35.981Z,5.30
2023-02-22T03:12:53.244Z,5.30
2023-02-22T03:18:17.728Z,5.50
2023-02-22T03:23:26.936Z,5.10
2023-02-22T03:28:31.823Z,5.10
2023-02-22T03:33:42.127Z,5.10
2023-02-22T03:38:45.442Z,5.00
2023-02-22T03:43:50.320Z,5.00
2023-02-22T03:49:02.848Z,5.00
2023-02-22T03:54:06.551Z,5.00
2023-02-22T03:59:10.256Z,5.10
2023-02-22T04:04:12.246Z,5.00
2023-02-22T04:09:14.960Z,5.00
2023-02-22T04:14:17.208Z,5.00
2023-02-22T04:19:19.400Z,4.90
2023-02-22T04:24:21.555Z,4.90
2023-02-22T04:29:23.701Z,5.00
2023-02-22T04:34:25.879Z,4.90
2023-02-22T04:39:28.325Z,5.10
2023-02-22T04:44:30.546Z,4.90
2023-02-22T04:49:32.854Z,5.00
2023-02-22T04:54:36.249Z,5.10
2023-02-22T04:59:38.562Z,5.20
2023-02-22T05:04:40.604Z,4.90
2023-02-22T05:09:42.597Z,5.00
2023-02-22T05:14:44.686Z,5.10
2023-02-22T05:19:47.707Z,5.30
2023-02-22T05:24:52.144Z,5.00
2023-02-22T05:29:54.097Z,5.10
2023-02-22T05:34:56.090Z,5.00
2023-02-22T05:39:58.073Z,5.00
2023-02-22T05:45:00.302Z,5.00
2023-02-22T05:50:02.304Z,5.00
2023-02-22T05:55:05.155Z,5.10
2023-02-22T06:00:07.901Z,4.90
2023-02-22T06:05:14.510Z,5.00
2023-02-22T06:10:16.623Z,4.80
2023-02-22T06:15:19.429Z,4.80
2023-02-22T06:20:22.791Z,4.80
2023-02-22T06:30:27.872Z,4.80
2023-02-22T06:35:29.897Z,4.70
2023-02-22T06:40:31.918Z,4.80
2023-02-22T06:45:33.955Z,4.90
2023-02-22T06:50:36.244Z,4.90
2023-02-22T06:55:38.504Z,5.10
2023-02-22T07:00:40.584Z,5.10
2023-02-22T07:05:42.767Z,5.10
2023-02-22T07:10:44.750Z,5.10
2023-02-22T07:15:46.826Z,5.20
2023-02-22T07:20:48.769Z,5.30
2023-02-22T07:25:50.780Z,5.30
2023-02-22T07:30:52.785Z,5.30
2023-02-22T07:35:54.820Z,5.30
2023-02-22T07:40:57.768Z,5.50
2023-02-22T07:46:02.617Z,5.50
2023-02-22T07:51:04.774Z,5.80
2023-02-22T07:56:08.700Z,6.00
2023-02-22T08:01:10.735Z,6.20
2023-02-22T08:06:13.201Z,6.40
2023-02-22T08:11:15.478Z,6.60
2023-02-22T08:16:17.570Z,7.00
2023-02-22T08:21:19.696Z,7.30
2023-02-22T08:26:23.604Z,7.60
2023-02-22T08:31:25.656Z,7.90
2023-02-22T08:36:29.365Z,7.90
2023-02-22T08:41:31.381Z,8.40
2023-02-22T08:46:33.371Z,8.60
2023-02-22T08:51:36.414Z,9.00
2023-02-22T08:56:38.432Z,9.30
2023-02-22T09:01:40.496Z,9.80
2023-02-22T09:06:44.058Z,9.90
2023-02-22T09:11:46.134Z,10.20
2023-02-22T09:16:48.151Z,10.50
2023-02-22T09:21:56.845Z,10.60
2023-02-22T09:26:59.772Z,10.90
2023-02-22T09:32:01.921Z,11.20
2023-02-22T09:37:08.668Z,11.40
2023-02-22T09:42:27.629Z,11.70
2023-02-22T09:47:38.848Z,11.70
2023-02-22T09:52:59.275Z,12.20
2023-02-22T09:58:02.978Z,12.10
2023-02-22T10:03:21.390Z,12.20
2023-02-22T10:08:26.580Z,12.40
2023-02-22T10:13:39.094Z,12.80
2023-02-22T10:18:44.079Z,12.60
2023-02-22T10:24:04.398Z,13.00
2023-02-22T10:29:22.193Z,13.00
2023-02-22T10:34:25.853Z,13.40
2023-02-22T10:39:32.248Z,13.40
2023-02-22T10:44:35.086Z,13.80
2023-02-22T10:49:42.304Z,13.90
2023-02-22T10:54:46.678Z,14.10
2023-02-22T10:59:48.719Z,14.10
2023-02-22T11:04:52.184Z,14.30
2023-02-22T11:09:55.601Z,14.30
2023-02-22T11:14:58.025Z,14.40
2023-02-22T11:20:00.340Z,14.70
2023-02-22T11:25:04.109Z,14.80
2023-02-22T11:30:10.628Z,14.90
2023-02-22T11:35:27.924Z,15.30
2023-02-22T11:40:29.941Z,15.40
2023-02-22T11:45:32.961Z,15.80
2023-02-22T11:50:54.628Z,16.00
2023-02-22T11:55:59.339Z,16.00
2023-02-22T12:01:06.992Z,16.60
2023-02-22T12:06:19.382Z,16.60
2023-02-22T12:11:28.772Z,16.80
2023-02-22T12:16:49.307Z,16.90
2023-02-22T12:21:57.719Z,17.10
2023-02-22T12:27:20.173Z,17.30
2023-02-22T12:32:28.270Z,17.60
2023-02-22T12:37:35.333Z,18.10
2023-02-22T12:43:06.652Z,18.30
2023-02-22T12:48:27.260Z,18.30
2023-02-22T12:53:34.702Z,18.80
2023-02-22T12:58:40.257Z,19.00
2023-02-22T13:03:43.808Z,19.10
2023-02-22T13:08:51.548Z,19.30
2023-02-22T13:14:04.032Z,19.40
2023-02-22T13:19:09.091Z,19.60
2023-02-22T13:24:17.149Z,20.00
2023-02-22T13:29:28.545Z,19.90
2023-02-22T13:34:33.590Z,20.10
2023-02-22T13:39:45.834Z,20.40
2023-02-22T13:44:57.180Z,20.60
2023-02-22T13:50:18.062Z,20.80
2023-02-22T13:55:22.214Z,20.90
2023-02-22T14:00:38.593Z,20.80
2023-02-22T14:05:43.710Z,21.20
2023-02-22T14:10:55.057Z,21.30
2023-02-22T14:16:00.009Z,21.30
2023-02-22T14:26:11.170Z,21.40
2023-02-22T14:31:29.533Z,21.20
2023-02-22T14:36:36.794Z,21.50
2023-02-22T14:41:41.040Z,21.30
2023-02-22T14:46:46.199Z,21.20
2023-02-22T14:52:03.930Z,21.30
2023-02-22T14:57:15.549Z,21.10
2023-02-22T15:02:18.250Z,21.20
2023-02-22T15:07:22.304Z,20.60
2023-02-22T15:12:29.807Z,20.80
2023-02-22T15:17:31.857Z,20.60
2023-02-22T15:22:35.719Z,20.50
2023-02-22T15:27:37.976Z,20.70
2023-02-22T15:32:53.511Z,20.30
2023-02-22T15:38:03.918Z,20.40
2023-02-22T15:43:08.812Z,20.00
2023-02-22T15:48:10.994Z,19.80
2023-02-22T15:53:30.092Z,19.50
2023-02-22T15:58:32.158Z,19.50
2023-02-22T16:03:38.731Z,19.30
2023-02-22T16:08:55.144Z,19.20
2023-02-22T16:14:00.602Z,19.00
2023-02-22T16:19:32.917Z,18.90
2023-02-22T16:24:35.927Z,18.70
2023-02-22T16:29:38.055Z,18.60
2023-02-22T16:34:40.103Z,18.30
2023-02-22T16:39:42.133Z,18.20
2023-02-22T16:44:44.139Z,17.90
2023-02-22T16:49:52.666Z,17.80
2023-02-22T16:59:57.007Z,17.70
2023-02-22T17:04:59.019Z,17.20
2023-02-22T17:10:01.038Z,17.00
2023-02-22T17:15:03.510Z,16.90
2023-02-22T17:25:21.963Z,16.60
2023-02-22T17:30:24.225Z,16.30
2023-02-22T17:35:27.024Z,16.10
2023-02-22T17:40:29.427Z,15.90
2023-02-22T17:45:31.517Z,15.90
2023-02-22T17:50:36.320Z,15.80
2023-02-22T17:55:40.461Z,15.80
2023-02-22T18:00:44.673Z,15.70
2023-02-22T18:05:47.946Z,15.70
2023-02-22T18:15:59.732Z,15.40
2023-02-22T18:21:01.975Z,15.20
2023-02-22T18:26:11.072Z,15.10
2023-02-22T18:31:14.913Z,14.90
2023-02-22T18:36:22.933Z,14.90
2023-02-22T18:41:25.544Z,14.70
2023-02-22T18:46:29.836Z,14.70
2023-02-22T18:51:32.109Z,14.60
2023-02-22T18:56:34.192Z,14.70
2023-02-22T19:01:38.808Z,14.50
2023-02-22T19:06:43.010Z,14.30
2023-02-22T19:11:46.468Z,14.20
2023-02-22T19:16:49.672Z,14.10
2023-02-22T19:21:52.047Z,14.00
2023-02-22T19:26:57.427Z,14.00
2023-02-22T19:31:59.700Z,13.70
2023-02-22T19:37:01.844Z,13.90
2023-02-22T19:42:06.048Z,14.00
2023-02-22T19:47:09.907Z,13.60
2023-02-22T19:52:11.935Z,13.50
2023-02-22T19:57:13.989Z,13.40
2023-02-22T20:02:16.023Z,13.40
2023-02-22T20:07:18.081Z,13.20
2023-02-22T20:12:21.447Z,13.20
2023-02-22T20:17:23.409Z,12.90
2023-02-22T20:22:25.445Z,12.90
2023-02-22T20:27:27.528Z,12.90
2023-02-22T20:32:31.728Z,12.70
2023-02-22T20:37:34.335Z,12.60
2023-02-22T20:42:36.412Z,12.60
2023-02-22T20:47:38.466Z,12.90
2023-02-22T20:52:40.495Z,12.70
2023-02-22T20:57:42.488Z,12.60
2023-02-22T21:07:48.649Z,12.70
2023-02-22T21:12:52.281Z,12.80
2023-02-22T21:17:54.505Z,12.80
2023-02-22T21:22:56.690Z,12.80
2023-02-22T21:27:58.771Z,12.80
2023-02-22T21:33:02.112Z,13.10
2023-02-22T21:38:04.084Z,12.80
2023-02-22T21:43:10.491Z,12.70
2023-02-22T21:48:12.566Z,12.80
2023-02-22T21:53:14.584Z,12.80
2023-02-22T21:58:16.561Z,12.90
2023-02-22T22:03:21.531Z,12.90
2023-02-22T22:08:24.922Z,13.00
2023-02-22T22:13:28.081Z,13.00
2023-02-22T22:18:30.084Z,13.00
2023-02-22T22:23:33.317Z,13.20
2023-02-22T22:28:36.288Z,13.10
2023-02-22T22:33:40.001Z,13.20
2023-02-22T22:38:43.046Z,13.20
2023-02-22T22:43:45.994Z,13.20
2023-02-22T22:48:48.062Z,13.30
2023-02-22T22:53:50.574Z,13.20
2023-02-22T22:58:53.926Z,13.20
2023-02-22T23:03:59.819Z,13.20
2023-02-22T23:09:10.167Z,13.20
2023-02-22T23:14:19.313Z,13.30
2023-02-22T23:19:21.365Z,13.40
2023-02-22T23:24:27.161Z,13.50
2023-02-22T23:29:32.310Z,13.70
2023-02-22T23:34:35.852Z,13.40
2023-02-22T23:39:37.977Z,13.30
2023-02-22T23:44:40.398Z,13.60
2023-02-22T23:49:45.293Z,13.30
2023-02-22T23:54:47.269Z,13.40
2023-02-22T23:59:51.210Z,13.40
